sensor_id;sensor_type;location;lat;lon;timestamp;P1;durP1;ratioP1;P2;durP2;ratioP2
19221;SDS011;9745;50.828;4.378;2023-01-31T00:01:59;28.43;;;8.20;;
19221;SDS011;9745;50.828;4.378;2023-01-31T00:04:24;28.33;;;7.57;;
19221;SDS011;9745;50.828;4.378;2023-01-31T00:06:50;28.30;;;8.03;;
19221;SDS011;9745;50.828;4.378;2023-01-31T00:09:18;34.30;;;8.73;;
19221;SDS011;9745;50.828;4.378;2023-01-31T00:11:44;23.60;;;7.37;;
19221;SDS011;9745;50.828;4.378;2023-01-31T00:14:10;28.70;;;8.00;;
19221;SDS011;9745;50.828;4.378;2023-01-31T00:16:39;24.83;;;7.40;;
19221;SDS011;9745;50.828;4.378;2023-01-31T00:19:05;22.33;;;7.13;;
19221;SDS011;9745;50.828;4.378;2023-01-31T00:21:31;23.93;;;8.30;;
19221;SDS011;9745;50.828;4.378;2023-01-31T00:23:57;24.47;;;6.63;;
19221;SDS011;9745;50.828;4.378;2023-01-31T00:26:24;23.97;;;6.23;;
19221;SDS011;9745;50.828;4.378;2023-01-31T00:28:52;32.27;;;8.07;;
19221;SDS011;9745;50.828;4.378;2023-01-31T00:31:18;26.83;;;7.53;;
19221;SDS011;9745;50.828;4.378;2023-01-31T00:33:45;26.13;;;6.80;;
19221;SDS011;9745;50.828;4.378;2023-01-31T00:36:12;24.50;;;6.47;;
19221;SDS011;9745;50.828;4.378;2023-01-31T00:38:39;25.07;;;7.50;;
19221;SDS011;9745;50.828;4.378;2023-01-31T00:41:08;25.53;;;7.13;;
19221;SDS011;9745;50.828;4.378;2023-01-31T00:43:34;19.63;;;6.97;;
19221;SDS011;9745;50.828;4.378;2023-01-31T00:46:00;29.73;;;7.20;;
19221;SDS011;9745;50.828;4.378;2023-01-31T00:48:26;27.20;;;6.90;;
19221;SDS011;9745;50.828;4.378;2023-01-31T00:50:52;22.97;;;6.57;;
19221;SDS011;9745;50.828;4.378;2023-01-31T00:53:18;23.67;;;6.50;;
19221;SDS011;9745;50.828;4.378;2023-01-31T00:55:51;27.70;;;6.50;;
19221;SDS011;9745;50.828;4.378;2023-01-31T00:58:17;27.03;;;6.60;;
19221;SDS011;9745;50.828;4.378;2023-01-31T01:00:43;25.07;;;6.80;;
19221;SDS011;9745;50.828;4.378;2023-01-31T01:03:09;19.10;;;6.47;;
19221;SDS011;9745;50.828;4.378;2023-01-31T01:05:35;19.87;;;7.43;;
19221;SDS011;9745;50.828;4.378;2023-01-31T01:08:01;17.47;;;6.77;;
19221;SDS011;9745;50.828;4.378;2023-01-31T01:10:27;24.07;;;6.13;;
19221;SDS011;9745;50.828;4.378;2023-01-31T01:12:53;22.30;;;7.60;;
19221;SDS011;9745;50.828;4.378;2023-01-31T01:15:19;25.70;;;6.90;;
19221;SDS011;9745;50.828;4.378;2023-01-31T01:17:45;24.83;;;7.27;;
19221;SDS011;9745;50.828;4.378;2023-01-31T01:20:11;25.87;;;7.50;;
19221;SDS011;9745;50.828;4.378;2023-01-31T01:22:38;23.30;;;7.80;;
19221;SDS011;9745;50.828;4.378;2023-01-31T01:25:04;26.60;;;7.17;;
19221;SDS011;9745;50.828;4.378;2023-01-31T01:27:30;23.47;;;7.43;;
19221;SDS011;9745;50.828;4.378;2023-01-31T01:29:56;24.93;;;6.40;;
19221;SDS011;9745;50.828;4.378;2023-01-31T01:32:23;25.40;;;6.80;;
19221;SDS011;9745;50.828;4.378;2023-01-31T01:34:49;25.53;;;7.70;;
19221;SDS011;9745;50.828;4.378;2023-01-31T01:37:15;23.80;;;7.83;;
19221;SDS011;9745;50.828;4.378;2023-01-31T01:39:50;33.30;;;7.20;;
19221;SDS011;9745;50.828;4.378;2023-01-31T01:42:18;22.17;;;6.83;;
19221;SDS011;9745;50.828;4.378;2023-01-31T01:44:54;19.00;;;7.30;;
19221;SDS011;9745;50.828;4.378;2023-01-31T01:49:48;23.77;;;8.27;;
19221;SDS011;9745;50.828;4.378;2023-01-31T01:52:15;23.17;;;6.73;;
19221;SDS011;9745;50.828;4.378;2023-01-31T01:54:44;24.27;;;7.03;;
19221;SDS011;9745;50.828;4.378;2023-01-31T01:57:11;20.43;;;7.10;;
19221;SDS011;9745;50.828;4.378;2023-01-31T01:59:45;24.60;;;7.20;;
19221;SDS011;9745;50.828;4.378;2023-01-31T02:02:11;20.73;;;6.53;;
19221;SDS011;9745;50.828;4.378;2023-01-31T02:04:38;24.93;;;7.77;;
19221;SDS011;9745;50.828;4.378;2023-01-31T02:07:06;14.67;;;6.50;;
19221;SDS011;9745;50.828;4.378;2023-01-31T02:09:41;23.27;;;7.23;;
19221;SDS011;9745;50.828;4.378;2023-01-31T02:12:10;26.67;;;7.20;;
19221;SDS011;9745;50.828;4.378;2023-01-31T02:14:36;19.90;;;7.10;;
19221;SDS011;9745;50.828;4.378;2023-01-31T02:17:02;20.67;;;7.37;;
19221;SDS011;9745;50.828;4.378;2023-01-31T02:19:37;22.00;;;7.00;;
19221;SDS011;9745;50.828;4.378;2023-01-31T02:24:51;26.00;;;6.70;;
19221;SDS011;9745;50.828;4.378;2023-01-31T02:27:34;17.90;;;6.47;;
19221;SDS011;9745;50.828;4.378;2023-01-31T02:38:10;25.20;;;9.07;;
19221;SDS011;9745;50.828;4.378;2023-01-31T02:41:00;19.77;;;7.10;;
19221;SDS011;9745;50.828;4.378;2023-01-31T02:43:42;23.43;;;7.30;;
19221;SDS011;9745;50.828;4.378;2023-01-31T02:46:34;22.23;;;7.27;;
19221;SDS011;9745;50.828;4.378;2023-01-31T02:49:23;22.27;;;7.77;;
19221;SDS011;9745;50.828;4.378;2023-01-31T02:52:07;24.07;;;7.13;;
19221;SDS011;9745;50.828;4.378;2023-01-31T02:54:42;25.67;;;8.03;;
19221;SDS011;9745;50.828;4.378;2023-01-31T02:57:29;23.53;;;7.17;;
19221;SDS011;9745;50.828;4.378;2023-01-31T02:59:55;25.67;;;9.23;;
19221;SDS011;9745;50.828;4.378;2023-01-31T03:02:21;22.00;;;8.23;;
19221;SDS011;9745;50.828;4.378;2023-01-31T03:04:48;21.80;;;7.10;;
19221;SDS011;9745;50.828;4.378;2023-01-31T03:07:24;28.20;;;8.50;;
19221;SDS011;9745;50.828;4.378;2023-01-31T03:17:27;23.90;;;6.80;;
19221;SDS011;9745;50.828;4.378;2023-01-31T03:22:53;22.87;;;6.73;;
19221;SDS011;9745;50.828;4.378;2023-01-31T03:25:22;20.60;;;7.60;;
19221;SDS011;9745;50.828;4.378;2023-01-31T03:27:51;20.13;;;7.03;;
19221;SDS011;9745;50.828;4.378;2023-01-31T03:30:23;25.67;;;7.17;;
19221;SDS011;9745;50.828;4.378;2023-01-31T03:32:58;26.87;;;7.77;;
19221;SDS011;9745;50.828;4.378;2023-01-31T03:35:26;16.43;;;7.03;;
19221;SDS011;9745;50.828;4.378;2023-01-31T03:40:30;16.33;;;6.40;;
19221;SDS011;9745;50.828;4.378;2023-01-31T03:43:04;16.93;;;6.77;;
19221;SDS011;9745;50.828;4.378;2023-01-31T03:45:47;13.57;;;6.17;;
19221;SDS011;9745;50.828;4.378;2023-01-31T03:48:14;22.20;;;7.07;;
19221;SDS011;9745;50.828;4.378;2023-01-31T03:50:55;21.33;;;6.43;;
19221;SDS011;9745;50.828;4.378;2023-01-31T03:53:33;25.80;;;6.67;;
19221;SDS011;9745;50.828;4.378;2023-01-31T03:56:01;21.40;;;5.50;;
19221;SDS011;9745;50.828;4.378;2023-01-31T03:58:30;19.80;;;7.00;;
19221;SDS011;9745;50.828;4.378;2023-01-31T04:00:58;23.60;;;6.60;;
19221;SDS011;9745;50.828;4.378;2023-01-31T04:03:35;15.67;;;5.97;;
19221;SDS011;9745;50.828;4.378;2023-01-31T04:06:02;28.57;;;5.93;;
19221;SDS011;9745;50.828;4.378;2023-01-31T04:08:29;22.67;;;5.63;;
19221;SDS011;9745;50.828;4.378;2023-01-31T04:10:56;11.60;;;5.57;;
19221;SDS011;9745;50.828;4.378;2023-01-31T04:13:22;21.37;;;5.90;;
19221;SDS011;9745;50.828;4.378;2023-01-31T04:15:48;21.13;;;5.97;;
19221;SDS011;9745;50.828;4.378;2023-01-31T04:18:14;19.63;;;5.83;;
19221;SDS011;9745;50.828;4.378;2023-01-31T04:20:40;28.10;;;5.93;;
19221;SDS011;9745;50.828;4.378;2023-01-31T04:23:06;17.10;;;5.77;;
19221;SDS011;9745;50.828;4.378;2023-01-31T04:25:32;19.10;;;6.30;;
19221;SDS011;9745;50.828;4.378;2023-01-31T04:27:59;16.20;;;6.07;;
19221;SDS011;9745;50.828;4.378;2023-01-31T04:30:25;18.90;;;5.97;;
19221;SDS011;9745;50.828;4.378;2023-01-31T04:32:51;15.77;;;5.33;;
19221;SDS011;9745;50.828;4.378;2023-01-31T04:35:17;27.43;;;6.00;;
19221;SDS011;9745;50.828;4.378;2023-01-31T04:37:43;19.53;;;5.07;;
19221;SDS011;9745;50.828;4.378;2023-01-31T04:40:09;21.10;;;5.60;;
19221;SDS011;9745;50.828;4.378;2023-01-31T04:42:36;20.33;;;5.80;;
19221;SDS011;9745;50.828;4.378;2023-01-31T04:45:02;22.97;;;5.77;;
19221;SDS011;9745;50.828;4.378;2023-01-31T04:47:28;20.00;;;6.63;;
19221;SDS011;9745;50.828;4.378;2023-01-31T04:49:54;16.13;;;4.80;;
19221;SDS011;9745;50.828;4.378;2023-01-31T04:52:20;18.57;;;4.60;;
19221;SDS011;9745;50.828;4.378;2023-01-31T04:54:48;17.87;;;5.83;;
19221;SDS011;9745;50.828;4.378;2023-01-31T04:57:14;19.17;;;4.43;;
19221;SDS011;9745;50.828;4.378;2023-01-31T04:59:40;19.63;;;4.80;;
19221;SDS011;9745;50.828;4.378;2023-01-31T05:02:06;25.90;;;6.27;;
19221;SDS011;9745;50.828;4.378;2023-01-31T05:04:32;12.37;;;5.03;;
19221;SDS011;9745;50.828;4.378;2023-01-31T05:06:58;13.30;;;4.70;;
19221;SDS011;9745;50.828;4.378;2023-01-31T05:09:24;21.90;;;5.33;;
19221;SDS011;9745;50.828;4.378;2023-01-31T05:11:50;22.20;;;5.57;;
19221;SDS011;9745;50.828;4.378;2023-01-31T05:14:16;19.33;;;6.10;;
19221;SDS011;9745;50.828;4.378;2023-01-31T05:16:45;18.20;;;4.57;;
19221;SDS011;9745;50.828;4.378;2023-01-31T05:19:12;15.13;;;5.17;;
19221;SDS011;9745;50.828;4.378;2023-01-31T05:21:38;16.37;;;4.63;;
19221;SDS011;9745;50.828;4.378;2023-01-31T05:24:18;21.03;;;5.33;;
19221;SDS011;9745;50.828;4.378;2023-01-31T05:26:44;20.63;;;4.80;;
19221;SDS011;9745;50.828;4.378;2023-01-31T05:29:11;22.53;;;5.50;;
19221;SDS011;9745;50.828;4.378;2023-01-31T05:31:37;17.43;;;5.47;;
19221;SDS011;9745;50.828;4.378;2023-01-31T05:34:03;17.60;;;5.03;;
19221;SDS011;9745;50.828;4.378;2023-01-31T05:36:30;21.77;;;5.40;;
19221;SDS011;9745;50.828;4.378;2023-01-31T05:38:55;21.70;;;5.83;;
19221;SDS011;9745;50.828;4.378;2023-01-31T05:41:21;14.53;;;4.73;;
19221;SDS011;9745;50.828;4.378;2023-01-31T05:43:47;18.80;;;5.20;;
19221;SDS011;9745;50.828;4.378;2023-01-31T05:46:13;21.63;;;4.97;;
19221;SDS011;9745;50.828;4.378;2023-01-31T05:48:39;26.23;;;6.37;;
19221;SDS011;9745;50.828;4.378;2023-01-31T05:51:05;23.83;;;6.03;;
19221;SDS011;9745;50.828;4.378;2023-01-31T05:53:31;14.30;;;4.97;;
19221;SDS011;9745;50.828;4.378;2023-01-31T05:55:57;17.77;;;5.20;;
19221;SDS011;9745;50.828;4.378;2023-01-31T05:58:23;20.77;;;5.43;;
19221;SDS011;9745;50.828;4.378;2023-01-31T06:00:49;21.17;;;5.57;;
19221;SDS011;9745;50.828;4.378;2023-01-31T06:03:15;19.20;;;5.27;;
19221;SDS011;9745;50.828;4.378;2023-01-31T06:05:41;10.67;;;4.40;;
19221;SDS011;9745;50.828;4.378;2023-01-31T06:08:07;23.50;;;4.80;;
19221;SDS011;9745;50.828;4.378;2023-01-31T06:10:35;17.77;;;4.87;;
19221;SDS011;9745;50.828;4.378;2023-01-31T06:13:00;14.73;;;5.50;;
19221;SDS011;9745;50.828;4.378;2023-01-31T06:15:26;14.73;;;4.97;;
19221;SDS011;9745;50.828;4.378;2023-01-31T06:17:53;17.87;;;5.33;;
19221;SDS011;9745;50.828;4.378;2023-01-31T06:20:18;25.63;;;5.80;;
19221;SDS011;9745;50.828;4.378;2023-01-31T06:22:44;15.00;;;5.10;;
19221;SDS011;9745;50.828;4.378;2023-01-31T06:25:10;13.50;;;4.73;;
19221;SDS011;9745;50.828;4.378;2023-01-31T06:27:36;19.37;;;4.97;;
19221;SDS011;9745;50.828;4.378;2023-01-31T06:30:02;18.67;;;5.50;;
19221;SDS011;9745;50.828;4.378;2023-01-31T06:32:28;23.67;;;4.60;;
19221;SDS011;9745;50.828;4.378;2023-01-31T06:34:54;17.87;;;5.00;;
19221;SDS011;9745;50.828;4.378;2023-01-31T06:37:20;14.90;;;4.60;;
19221;SDS011;9745;50.828;4.378;2023-01-31T06:39:46;17.77;;;5.37;;
19221;SDS011;9745;50.828;4.378;2023-01-31T06:42:12;19.80;;;5.20;;
19221;SDS011;9745;50.828;4.378;2023-01-31T06:44:38;14.40;;;5.70;;
19221;SDS011;9745;50.828;4.378;2023-01-31T06:47:04;20.40;;;5.77;;
19221;SDS011;9745;50.828;4.378;2023-01-31T06:49:30;17.10;;;5.17;;
19221;SDS011;9745;50.828;4.378;2023-01-31T06:51:56;22.23;;;5.57;;
19221;SDS011;9745;50.828;4.378;2023-01-31T06:54:22;19.10;;;6.53;;
19221;SDS011;9745;50.828;4.378;2023-01-31T06:56:48;23.33;;;6.00;;
19221;SDS011;9745;50.828;4.378;2023-01-31T06:59:14;19.80;;;4.93;;
19221;SDS011;9745;50.828;4.378;2023-01-31T07:01:40;15.83;;;4.83;;
19221;SDS011;9745;50.828;4.378;2023-01-31T07:04:06;16.53;;;5.43;;
19221;SDS011;9745;50.828;4.378;2023-01-31T07:06:32;20.40;;;4.70;;
19221;SDS011;9745;50.828;4.378;2023-01-31T07:08:58;23.27;;;5.57;;
19221;SDS011;9745;50.828;4.378;2023-01-31T07:11:24;22.20;;;4.83;;
19221;SDS011;9745;50.828;4.378;2023-01-31T07:13:50;25.80;;;5.87;;
19221;SDS011;9745;50.828;4.378;2023-01-31T07:16:17;21.30;;;5.00;;
19221;SDS011;9745;50.828;4.378;2023-01-31T07:18:43;15.53;;;5.23;;
19221;SDS011;9745;50.828;4.378;2023-01-31T07:21:09;18.03;;;5.20;;
19221;SDS011;9745;50.828;4.378;2023-01-31T07:23:35;20.43;;;4.93;;
19221;SDS011;9745;50.828;4.378;2023-01-31T07:26:02;13.10;;;5.20;;
19221;SDS011;9745;50.828;4.378;2023-01-31T07:28:28;25.63;;;4.80;;
19221;SDS011;9745;50.828;4.378;2023-01-31T07:30:54;15.87;;;4.50;;
19221;SDS011;9745;50.828;4.378;2023-01-31T07:33:20;17.60;;;5.80;;
19221;SDS011;9745;50.828;4.378;2023-01-31T07:35:46;16.40;;;4.33;;
19221;SDS011;9745;50.828;4.378;2023-01-31T07:38:12;12.17;;;5.20;;
19221;SDS011;9745;50.828;4.378;2023-01-31T07:40:38;18.67;;;5.00;;
19221;SDS011;9745;50.828;4.378;2023-01-31T07:43:04;14.57;;;4.27;;
19221;SDS011;9745;50.828;4.378;2023-01-31T07:45:31;27.73;;;5.03;;
19221;SDS011;9745;50.828;4.378;2023-01-31T07:47:57;17.60;;;4.93;;
19221;SDS011;9745;50.828;4.378;2023-01-31T07:50:23;17.17;;;4.67;;
19221;SDS011;9745;50.828;4.378;2023-01-31T07:52:51;17.67;;;4.63;;
19221;SDS011;9745;50.828;4.378;2023-01-31T07:55:17;17.07;;;4.93;;
19221;SDS011;9745;50.828;4.378;2023-01-31T07:57:43;19.83;;;4.87;;
19221;SDS011;9745;50.828;4.378;2023-01-31T08:00:09;19.40;;;5.33;;
19221;SDS011;9745;50.828;4.378;2023-01-31T08:02:55;18.10;;;4.63;;
19221;SDS011;9745;50.828;4.378;2023-01-31T08:05:40;16.63;;;4.30;;
19221;SDS011;9745;50.828;4.378;2023-01-31T08:08:05;16.87;;;4.40;;
19221;SDS011;9745;50.828;4.378;2023-01-31T08:10:35;19.07;;;4.83;;
19221;SDS011;9745;50.828;4.378;2023-01-31T08:13:01;20.87;;;5.37;;
19221;SDS011;9745;50.828;4.378;2023-01-31T08:15:28;14.00;;;4.30;;
19221;SDS011;9745;50.828;4.378;2023-01-31T08:17:54;21.33;;;5.13;;
19221;SDS011;9745;50.828;4.378;2023-01-31T08:20:20;16.90;;;4.40;;
19221;SDS011;9745;50.828;4.378;2023-01-31T08:22:46;16.57;;;4.30;;
19221;SDS011;9745;50.828;4.378;2023-01-31T08:25:12;16.70;;;4.40;;
19221;SDS011;9745;50.828;4.378;2023-01-31T08:27:38;17.33;;;5.57;;
19221;SDS011;9745;50.828;4.378;2023-01-31T08:30:04;20.00;;;4.40;;
19221;SDS011;9745;50.828;4.378;2023-01-31T08:32:31;16.53;;;4.30;;
19221;SDS011;9745;50.828;4.378;2023-01-31T08:34:57;18.17;;;5.10;;
19221;SDS011;9745;50.828;4.378;2023-01-31T08:37:23;14.20;;;4.53;;
19221;SDS011;9745;50.828;4.378;2023-01-31T08:39:49;21.20;;;4.90;;
19221;SDS011;9745;50.828;4.378;2023-01-31T08:42:15;16.00;;;4.77;;
19221;SDS011;9745;50.828;4.378;2023-01-31T08:44:41;17.83;;;4.97;;
19221;SDS011;9745;50.828;4.378;2023-01-31T08:47:07;18.13;;;4.73;;
19221;SDS011;9745;50.828;4.378;2023-01-31T08:49:33;15.67;;;3.77;;
19221;SDS011;9745;50.828;4.378;2023-01-31T08:52:00;18.43;;;6.30;;
19221;SDS011;9745;50.828;4.378;2023-01-31T08:54:27;14.00;;;4.60;;
19221;SDS011;9745;50.828;4.378;2023-01-31T08:56:52;14.33;;;4.13;;
19221;SDS011;9745;50.828;4.378;2023-01-31T08:59:18;19.33;;;4.17;;
19221;SDS011;9745;50.828;4.378;2023-01-31T09:01:44;16.77;;;4.30;;
19221;SDS011;9745;50.828;4.378;2023-01-31T09:04:11;14.63;;;4.27;;
19221;SDS011;9745;50.828;4.378;2023-01-31T09:06:37;17.03;;;4.93;;
19221;SDS011;9745;50.828;4.378;2023-01-31T09:09:03;13.07;;;4.47;;
19221;SDS011;9745;50.828;4.378;2023-01-31T09:11:29;18.13;;;4.33;;
19221;SDS011;9745;50.828;4.378;2023-01-31T09:13:56;16.37;;;4.07;;
19221;SDS011;9745;50.828;4.378;2023-01-31T09:16:22;13.80;;;4.03;;
19221;SDS011;9745;50.828;4.378;2023-01-31T09:18:48;18.80;;;4.00;;
19221;SDS011;9745;50.828;4.378;2023-01-31T09:21:16;11.83;;;3.90;;
19221;SDS011;9745;50.828;4.378;2023-01-31T09:23:43;22.20;;;4.63;;
19221;SDS011;9745;50.828;4.378;2023-01-31T09:26:12;16.13;;;3.47;;
19221;SDS011;9745;50.828;4.378;2023-01-31T09:28:38;14.33;;;3.20;;
19221;SDS011;9745;50.828;4.378;2023-01-31T09:31:09;13.43;;;4.27;;
19221;SDS011;9745;50.828;4.378;2023-01-31T09:33:35;20.50;;;5.13;;
19221;SDS011;9745;50.828;4.378;2023-01-31T09:36:05;20.37;;;4.03;;
19221;SDS011;9745;50.828;4.378;2023-01-31T09:38:31;17.17;;;4.00;;
19221;SDS011;9745;50.828;4.378;2023-01-31T09:40:58;19.13;;;4.10;;
19221;SDS011;9745;50.828;4.378;2023-01-31T09:43:27;16.90;;;4.00;;
19221;SDS011;9745;50.828;4.378;2023-01-31T09:45:55;20.53;;;5.07;;
19221;SDS011;9745;50.828;4.378;2023-01-31T09:48:23;17.50;;;4.80;;
19221;SDS011;9745;50.828;4.378;2023-01-31T09:50:51;16.37;;;3.90;;
19221;SDS011;9745;50.828;4.378;2023-01-31T09:53:20;19.47;;;3.73;;
19221;SDS011;9745;50.828;4.378;2023-01-31T09:55:50;14.50;;;4.10;;
19221;SDS011;9745;50.828;4.378;2023-01-31T10:06:26;14.47;;;3.97;;
19221;SDS011;9745;50.828;4.378;2023-01-31T10:14:00;19.70;;;4.97;;
19221;SDS011;9745;50.828;4.378;2023-01-31T10:16:30;32.43;;;5.37;;
19221;SDS011;9745;50.828;4.378;2023-01-31T10:18:58;29.63;;;5.80;;
19221;SDS011;9745;50.828;4.378;2023-01-31T10:21:31;19.20;;;3.97;;
19221;SDS011;9745;50.828;4.378;2023-01-31T10:26:46;19.20;;;5.03;;
19221;SDS011;9745;50.828;4.378;2023-01-31T10:32:02;22.20;;;5.00;;
19221;SDS011;9745;50.828;4.378;2023-01-31T10:34:39;13.20;;;3.87;;
19221;SDS011;9745;50.828;4.378;2023-01-31T10:39:36;23.77;;;4.47;;
19221;SDS011;9745;50.828;4.378;2023-01-31T10:42:08;16.90;;;5.13;;
19221;SDS011;9745;50.828;4.378;2023-01-31T10:47:10;22.07;;;5.60;;
19221;SDS011;9745;50.828;4.378;2023-01-31T10:49:37;18.53;;;4.83;;
19221;SDS011;9745;50.828;4.378;2023-01-31T10:57:07;17.77;;;4.73;;
19221;SDS011;9745;50.828;4.378;2023-01-31T10:59:35;14.80;;;4.37;;
19221;SDS011;9745;50.828;4.378;2023-01-31T11:02:02;16.03;;;4.20;;
19221;SDS011;9745;50.828;4.378;2023-01-31T11:04:39;11.90;;;4.10;;
19221;SDS011;9745;50.828;4.378;2023-01-31T11:09:22;21.27;;;4.43;;
19221;SDS011;9745;50.828;4.378;2023-01-31T11:11:59;18.63;;;4.40;;
19221;SDS011;9745;50.828;4.378;2023-01-31T11:14:25;13.97;;;4.17;;
19221;SDS011;9745;50.828;4.378;2023-01-31T11:16:58;16.00;;;4.67;;
19221;SDS011;9745;50.828;4.378;2023-01-31T11:21:54;13.03;;;3.90;;
19221;SDS011;9745;50.828;4.378;2023-01-31T11:24:21;20.10;;;5.43;;
19221;SDS011;9745;50.828;4.378;2023-01-31T11:26:52;20.50;;;5.33;;
19221;SDS011;9745;50.828;4.378;2023-01-31T11:29:19;21.30;;;5.23;;
19221;SDS011;9745;50.828;4.378;2023-01-31T11:31:47;16.03;;;5.17;;
19221;SDS011;9745;50.828;4.378;2023-01-31T11:34:18;14.23;;;4.53;;
19221;SDS011;9745;50.828;4.378;2023-01-31T11:36:45;14.20;;;4.90;;
19221;SDS011;9745;50.828;4.378;2023-01-31T11:39:23;17.67;;;4.60;;
19221;SDS011;9745;50.828;4.378;2023-01-31T11:41:50;13.63;;;5.33;;
19221;SDS011;9745;50.828;4.378;2023-01-31T11:44:17;17.67;;;5.00;;
19221;SDS011;9745;50.828;4.378;2023-01-31T11:49:15;16.27;;;4.07;;
19221;SDS011;9745;50.828;4.378;2023-01-31T11:51:42;14.93;;;4.87;;
19221;SDS011;9745;50.828;4.378;2023-01-31T11:54:09;16.70;;;4.97;;
19221;SDS011;9745;50.828;4.378;2023-01-31T11:56:37;19.73;;;5.53;;
19221;SDS011;9745;50.828;4.378;2023-01-31T11:59:03;16.93;;;5.43;;
19221;SDS011;9745;50.828;4.378;2023-01-31T12:01:33;12.57;;;4.03;;
19221;SDS011;9745;50.828;4.378;2023-01-31T12:04:01;15.13;;;4.70;;
19221;SDS011;9745;50.828;4.378;2023-01-31T12:06:35;18.03;;;4.77;;
19221;SDS011;9745;50.828;4.378;2023-01-31T12:09:03;19.17;;;4.27;;
19221;SDS011;9745;50.828;4.378;2023-01-31T12:16:28;18.40;;;3.90;;
19221;SDS011;9745;50.828;4.378;2023-01-31T12:19:11;18.83;;;4.53;;
19221;SDS011;9745;50.828;4.378;2023-01-31T12:21:53;18.93;;;4.60;;
19221;SDS011;9745;50.828;4.378;2023-01-31T12:26:53;13.17;;;4.10;;
19221;SDS011;9745;50.828;4.378;2023-01-31T12:34:37;17.57;;;4.50;;
19221;SDS011;9745;50.828;4.378;2023-01-31T12:39:43;15.53;;;5.00;;
19221;SDS011;9745;50.828;4.378;2023-01-31T12:44:43;18.40;;;4.60;;
19221;SDS011;9745;50.828;4.378;2023-01-31T12:52:49;23.83;;;4.97;;
19221;SDS011;9745;50.828;4.378;2023-01-31T13:00:31;17.37;;;4.90;;
19221;SDS011;9745;50.828;4.378;2023-01-31T13:03:22;18.27;;;6.40;;
19221;SDS011;9745;50.828;4.378;2023-01-31T13:05:55;14.03;;;4.97;;
19221;SDS011;9745;50.828;4.378;2023-01-31T13:08:23;27.87;;;7.07;;
19221;SDS011;9745;50.828;4.378;2023-01-31T13:10:57;18.00;;;5.13;;
19221;SDS011;9745;50.828;4.378;2023-01-31T13:13:29;19.47;;;5.30;;
19221;SDS011;9745;50.828;4.378;2023-01-31T13:15:58;20.60;;;5.77;;
19221;SDS011;9745;50.828;4.378;2023-01-31T13:18:26;20.33;;;5.47;;
19221;SDS011;9745;50.828;4.378;2023-01-31T13:20:57;19.00;;;5.80;;
19221;SDS011;9745;50.828;4.378;2023-01-31T13:23:29;20.90;;;6.10;;
19221;SDS011;9745;50.828;4.378;2023-01-31T13:26:09;14.57;;;6.20;;
19221;SDS011;9745;50.828;4.378;2023-01-31T13:28:38;16.47;;;5.50;;
19221;SDS011;9745;50.828;4.378;2023-01-31T13:34:12;19.00;;;6.60;;
19221;SDS011;9745;50.828;4.378;2023-01-31T13:36:44;21.00;;;5.13;;
19221;SDS011;9745;50.828;4.378;2023-01-31T13:39:26;18.10;;;5.87;;
19221;SDS011;9745;50.828;4.378;2023-01-31T13:41:54;18.87;;;5.43;;
19221;SDS011;9745;50.828;4.378;2023-01-31T13:44:20;24.43;;;7.17;;
19221;SDS011;9745;50.828;4.378;2023-01-31T13:46:56;25.10;;;6.93;;
19221;SDS011;9745;50.828;4.378;2023-01-31T13:49:36;19.67;;;6.10;;
19221;SDS011;9745;50.828;4.378;2023-01-31T13:54:49;18.10;;;5.90;;
19221;SDS011;9745;50.828;4.378;2023-01-31T14:00:29;12.03;;;4.77;;
19221;SDS011;9745;50.828;4.378;2023-01-31T14:03:00;11.90;;;5.03;;
19221;SDS011;9745;50.828;4.378;2023-01-31T14:11:43;14.43;;;4.97;;
19221;SDS011;9745;50.828;4.378;2023-01-31T14:13:46;12.13;;;4.33;;
19221;SDS011;9745;50.828;4.378;2023-01-31T14:16:32;16.13;;;5.60;;
19221;SDS011;9745;50.828;4.378;2023-01-31T14:19:00;12.67;;;5.27;;
19221;SDS011;9745;50.828;4.378;2023-01-31T14:24:58;9.73;;;4.87;;
19221;SDS011;9745;50.828;4.378;2023-01-31T14:27:10;12.10;;;5.27;;
19221;SDS011;9745;50.828;4.378;2023-01-31T14:29:40;13.93;;;4.60;;
19221;SDS011;9745;50.828;4.378;2023-01-31T14:32:11;12.97;;;4.93;;
19221;SDS011;9745;50.828;4.378;2023-01-31T14:34:38;10.70;;;5.27;;
19221;SDS011;9745;50.828;4.378;2023-01-31T14:37:23;14.40;;;5.23;;
19221;SDS011;9745;50.828;4.378;2023-01-31T14:53:21;12.43;;;4.97;;
19221;SDS011;9745;50.828;4.378;2023-01-31T14:58:21;13.83;;;5.40;;
19221;SDS011;9745;50.828;4.378;2023-01-31T15:00:53;14.43;;;4.93;;
19221;SDS011;9745;50.828;4.378;2023-01-31T15:05:52;11.33;;;4.53;;
19221;SDS011;9745;50.828;4.378;2023-01-31T15:13:39;11.60;;;4.67;;
19221;SDS011;9745;50.828;4.378;2023-01-31T15:16:06;9.70;;;4.60;;
19221;SDS011;9745;50.828;4.378;2023-01-31T15:18:33;10.93;;;4.30;;
19221;SDS011;9745;50.828;4.378;2023-01-31T15:21:01;12.47;;;4.30;;
19221;SDS011;9745;50.828;4.378;2023-01-31T15:23:28;14.07;;;4.50;;
19221;SDS011;9745;50.828;4.378;2023-01-31T15:25:56;11.20;;;4.17;;
19221;SDS011;9745;50.828;4.378;2023-01-31T15:28:30;11.67;;;5.27;;
19221;SDS011;9745;50.828;4.378;2023-01-31T15:31:00;12.83;;;4.17;;
19221;SDS011;9745;50.828;4.378;2023-01-31T15:33:39;9.13;;;3.50;;
19221;SDS011;9745;50.828;4.378;2023-01-31T15:38:42;8.63;;;3.47;;
19221;SDS011;9745;50.828;4.378;2023-01-31T15:41:19;6.53;;;3.70;;
19221;SDS011;9745;50.828;4.378;2023-01-31T15:43:46;12.67;;;4.53;;
19221;SDS011;9745;50.828;4.378;2023-01-31T15:46:13;6.47;;;3.27;;
19221;SDS011;9745;50.828;4.378;2023-01-31T15:48:40;11.47;;;3.97;;
19221;SDS011;9745;50.828;4.378;2023-01-31T15:51:11;8.47;;;3.50;;
19221;SDS011;9745;50.828;4.378;2023-01-31T15:53:40;8.13;;;3.30;;
19221;SDS011;9745;50.828;4.378;2023-01-31T15:56:06;7.30;;;3.20;;
19221;SDS011;9745;50.828;4.378;2023-01-31T15:58:33;10.23;;;3.80;;
19221;SDS011;9745;50.828;4.378;2023-01-31T16:01:01;11.97;;;3.63;;
19221;SDS011;9745;50.828;4.378;2023-01-31T16:03:32;9.53;;;3.23;;
19221;SDS011;9745;50.828;4.378;2023-01-31T16:05:59;7.53;;;3.47;;
19221;SDS011;9745;50.828;4.378;2023-01-31T16:10:58;9.97;;;3.27;;
19221;SDS011;9745;50.828;4.378;2023-01-31T16:13:24;11.17;;;4.90;;
19221;SDS011;9745;50.828;4.378;2023-01-31T16:15:50;11.33;;;3.77;;
19221;SDS011;9745;50.828;4.378;2023-01-31T16:18:17;7.97;;;3.07;;
19221;SDS011;9745;50.828;4.378;2023-01-31T16:20:44;8.27;;;3.83;;
19221;SDS011;9745;50.828;4.378;2023-01-31T16:25:45;9.00;;;3.60;;
19221;SDS011;9745;50.828;4.378;2023-01-31T16:28:15;9.83;;;3.80;;
19221;SDS011;9745;50.828;4.378;2023-01-31T16:30:41;8.43;;;3.50;;
19221;SDS011;9745;50.828;4.378;2023-01-31T16:33:14;10.87;;;3.33;;
19221;SDS011;9745;50.828;4.378;2023-01-31T16:35:40;12.50;;;4.20;;
19221;SDS011;9745;50.828;4.378;2023-01-31T16:38:17;15.17;;;5.60;;
19221;SDS011;9745;50.828;4.378;2023-01-31T16:40:44;7.70;;;3.60;;
19221;SDS011;9745;50.828;4.378;2023-01-31T16:45:37;9.13;;;3.60;;
19221;SDS011;9745;50.828;4.378;2023-01-31T16:48:22;9.53;;;3.93;;
19221;SDS011;9745;50.828;4.378;2023-01-31T16:50:49;11.77;;;3.73;;
19221;SDS011;9745;50.828;4.378;2023-01-31T16:58:43;9.90;;;3.87;;
19221;SDS011;9745;50.828;4.378;2023-01-31T17:01:11;8.87;;;3.80;;
19221;SDS011;9745;50.828;4.378;2023-01-31T17:03:38;9.10;;;3.53;;
19221;SDS011;9745;50.828;4.378;2023-01-31T17:06:04;11.13;;;4.23;;
19221;SDS011;9745;50.828;4.378;2023-01-31T17:08:30;9.63;;;3.70;;
19221;SDS011;9745;50.828;4.378;2023-01-31T17:10:56;9.87;;;3.70;;
19221;SDS011;9745;50.828;4.378;2023-01-31T17:13:22;7.60;;;3.67;;
19221;SDS011;9745;50.828;4.378;2023-01-31T17:15:50;8.77;;;3.40;;
19221;SDS011;9745;50.828;4.378;2023-01-31T17:18:16;5.40;;;2.97;;
19221;SDS011;9745;50.828;4.378;2023-01-31T17:20:43;11.10;;;3.70;;
19221;SDS011;9745;50.828;4.378;2023-01-31T17:23:10;10.13;;;3.83;;
19221;SDS011;9745;50.828;4.378;2023-01-31T17:25:36;10.67;;;4.50;;